createdAt,value
2018-05-24T00:01:54.226Z,16.7
2018-05-24T00:12:05.771Z,16.5
2018-05-24T00:22:20.290Z,16.4
2018-05-24T00:33:09.354Z,16.1
2018-05-24T00:43:22.911Z,16.1
2018-05-24T00:53:34.518Z,16.0
2018-05-24T01:04:20.038Z,15.7
2018-05-24T01:15:05.999Z,15.6
2018-05-24T01:25:51.709Z,15.4
2018-05-24T01:36:37.278Z,15.3
2018-05-24T01:47:26.289Z,15.2
2018-05-24T01:57:40.668Z,15.2
2018-05-24T02:08:26.521Z,14.9
2018-05-24T02:18:38.730Z,14.9
2018-05-24T02:29:24.294Z,14.7
2018-05-24T02:39:38.751Z,14.7
2018-05-24T02:49:50.816Z,14.6
2018-05-24T03:00:06.260Z,14.5
2018-05-24T03:10:22.054Z,14.4
2018-05-24T03:20:38.308Z,14.4
2018-05-24T03:30:52.805Z,14.4
2018-05-24T03:41:06.940Z,14.3
2018-05-24T03:51:19.308Z,14.3
2018-05-24T04:01:33.352Z,14.2
2018-05-24T04:11:48.141Z,14.2
2018-05-24T04:22:33.239Z,14.1
2018-05-24T04:32:47.661Z,14.1
2018-05-24T04:43:00.173Z,14.2
2018-05-24T04:53:13.965Z,14.2
2018-05-24T05:03:28.151Z,14.2
2018-05-24T05:13:48.059Z,14.4
2018-05-24T05:23:59.709Z,14.6
2018-05-24T05:34:45.372Z,15.1
2018-05-24T05:45:31.120Z,15.4
2018-05-24T06:17:54.529Z,15.9
2018-05-24T06:30:44.340Z,16.7
2018-05-24T06:41:41.896Z,17.3
2018-05-24T06:52:30.447Z,17.9
2018-05-24T07:04:22.697Z,18.6
2018-05-24T07:14:37.451Z,18.6
2018-05-24T07:24:51.560Z,19.2
2018-05-24T07:35:05.829Z,19.6
2018-05-24T07:45:20.045Z,20.0
2018-05-24T07:56:05.837Z,21.1
2018-05-24T08:06:54.597Z,22.2
2018-05-24T08:17:40.584Z,23.5
2018-05-24T08:28:28.266Z,25.1
2018-05-24T08:39:13.919Z,26.1
2018-05-24T08:49:26.248Z,26.1
2018-05-24T09:00:12.692Z,26.5
2018-05-24T09:10:58.311Z,27.1
2018-05-24T09:21:45.513Z,27.5
2018-05-24T09:32:37.531Z,27.9
2018-05-24T09:42:53.159Z,27.9
2018-05-24T09:53:16.831Z,28.8
2018-05-24T10:03:30.963Z,29.5
2018-05-24T10:13:45.367Z,30.3
2018-05-24T10:24:30.870Z,31.7
2018-05-24T10:35:06.321Z,31.8
2018-05-24T10:45:52.023Z,32.3
2018-05-24T10:56:57.645Z,32.5
2018-05-24T11:07:12.273Z,32.5
2018-05-24T11:18:09.874Z,32.2
2018-05-24T11:28:24.833Z,31.7
2018-05-24T11:39:13.464Z,30.1
2018-05-24T11:50:00.770Z,29.3
2018-05-24T12:00:15.691Z,29.3
2018-05-24T12:10:32.284Z,28.7
2018-05-24T12:21:17.603Z,28.9
2018-05-24T12:31:31.880Z,28.9
2018-05-24T12:41:44.341Z,29.3
2018-05-24T12:51:56.424Z,29.3
2018-05-24T13:02:10.505Z,29.1
2018-05-24T13:12:56.170Z,28.7
2018-05-24T13:23:10.643Z,28.7
2018-05-24T13:33:26.869Z,28.5
2018-05-24T13:44:19.801Z,28.2
2018-05-24T13:55:10.843Z,27.9
2018-05-24T14:16:29.266Z,27.3
2018-05-24T14:26:47.663Z,27.3
2018-05-24T14:37:43.701Z,26.7
2018-05-24T14:48:08.456Z,26.7
2018-05-24T14:58:27.839Z,26.2
2018-05-24T15:08:42.326Z,25.8
2018-05-24T15:18:56.304Z,25.3
2018-05-24T15:29:10.470Z,24.7
2018-05-24T15:39:24.293Z,24.3
2018-05-24T15:49:42.639Z,24.0
2018-05-24T16:10:15.069Z,23.6
2018-05-24T16:31:17.231Z,23.3
2018-05-24T16:41:32.817Z,23.3
2018-05-24T16:52:19.052Z,23.2
2018-05-24T17:02:39.013Z,23.1
2018-05-24T17:12:53.598Z,23.1
2018-05-24T17:23:38.892Z,23.0
2018-05-24T17:33:54.383Z,23.0
2018-05-24T17:44:08.953Z,23.0
2018-05-24T17:54:35.779Z,23.0
2018-05-24T19:57:34.768Z,20.9
2018-05-24T20:08:20.496Z,20.7
2018-05-24T20:18:33.128Z,20.7
2018-05-24T20:29:18.497Z,20.3
2018-05-24T20:40:09.233Z,20.2
2018-05-24T20:50:56.160Z,20.0
2018-05-24T21:01:11.488Z,20.0
2018-05-24T21:11:26.703Z,19.9
2018-05-24T21:21:39.002Z,19.8
2018-05-24T21:31:53.120Z,19.7
2018-05-24T21:42:39.611Z,19.4
2018-05-24T21:52:52.090Z,19.4
2018-05-24T22:03:38.552Z,19.2
2018-05-24T22:14:25.384Z,19.1
2018-05-24T22:25:12.895Z,19.0
2018-05-24T22:36:04.092Z,18.8
2018-05-24T22:46:18.492Z,18.9
2018-05-24T22:57:05.265Z,18.6
2018-05-24T23:07:53.635Z,18.5
2018-05-24T23:19:14.526Z,18.4
2018-05-24T23:29:28.651Z,18.4
2018-05-24T23:40:50.965Z,18.2
2018-05-24T23:51:05.355Z,18.2
